createdAt,value
2022-08-26T00:02:26.307Z,8.60
2022-08-26T00:04:57.211Z,7.47
2022-08-26T00:07:27.459Z,8.23
2022-08-26T00:10:00.687Z,8.15
2022-08-26T00:12:37.498Z,8.15
2022-08-26T00:15:10.963Z,9.02
2022-08-26T00:17:40.920Z,8.68
2022-08-26T00:20:15.106Z,8.30
2022-08-26T00:22:45.707Z,8.18
2022-08-26T00:25:17.728Z,8.73
2022-08-26T00:27:48.423Z,8.45
2022-08-26T00:30:22.940Z,8.82
2022-08-26T00:32:54.823Z,8.82
2022-08-26T00:35:26.104Z,8.05
2022-08-26T00:37:58.956Z,8.10
2022-08-26T00:40:33.087Z,8.75
2022-08-26T00:43:06.971Z,7.97
2022-08-26T00:45:43.350Z,8.73
2022-08-26T00:48:16.406Z,8.60
2022-08-26T00:50:57.552Z,9.90
2022-08-26T00:53:31.600Z,8.98
2022-08-26T00:56:08.820Z,8.48
2022-08-26T00:58:45.406Z,8.77
2022-08-26T01:01:16.740Z,8.88
2022-08-26T01:03:47.897Z,9.45
2022-08-26T01:06:18.471Z,7.60
2022-08-26T01:08:48.416Z,10.23
2022-08-26T01:11:20.890Z,8.38
2022-08-26T01:13:54.693Z,9.20
2022-08-26T01:16:26.048Z,8.45
2022-08-26T01:19:02.150Z,8.77
2022-08-26T01:21:40.653Z,7.53
2022-08-26T01:24:13.949Z,7.90
2022-08-26T01:26:45.419Z,8.87
2022-08-26T01:29:19.014Z,8.68
2022-08-26T01:31:55.464Z,8.75
2022-08-26T01:34:28.943Z,9.13
2022-08-26T01:37:04.212Z,8.10
2022-08-26T01:39:38.012Z,9.30
2022-08-26T01:42:14.168Z,8.07
2022-08-26T01:44:47.360Z,8.63
2022-08-26T01:47:19.712Z,8.15
2022-08-26T01:49:54.257Z,8.82
2022-08-26T01:52:27.628Z,7.65
2022-08-26T01:55:00.937Z,7.82
2022-08-26T01:57:31.929Z,9.98
2022-08-26T02:00:08.248Z,7.30
2022-08-26T02:02:38.444Z,8.07
2022-08-26T02:05:12.920Z,7.93
2022-08-26T02:07:44.345Z,8.02
2022-08-26T02:10:17.016Z,8.18
2022-08-26T02:12:51.232Z,7.70
2022-08-26T02:15:21.876Z,8.38
2022-08-26T02:17:53.292Z,8.63
2022-08-26T02:20:26.435Z,8.55
2022-08-26T02:22:57.646Z,7.85
2022-08-26T02:25:33.552Z,7.82
2022-08-26T02:28:03.702Z,7.70
2022-08-26T02:30:35.220Z,7.10
2022-08-26T02:33:05.959Z,7.95
2022-08-26T02:35:37.258Z,7.82
2022-08-26T02:38:10.271Z,7.05
2022-08-26T02:40:43.933Z,6.97
2022-08-26T02:43:13.960Z,7.35
2022-08-26T02:45:44.095Z,7.95
2022-08-26T02:48:17.362Z,7.57
2022-08-26T02:50:49.446Z,7.15
2022-08-26T02:53:25.020Z,7.60
2022-08-26T02:55:57.108Z,7.53
2022-08-26T02:58:29.736Z,7.53
2022-08-26T03:01:00.241Z,6.97
2022-08-26T03:03:32.056Z,7.93
2022-08-26T03:06:02.908Z,7.00
2022-08-26T03:08:32.832Z,8.05
2022-08-26T03:11:04.346Z,8.25
2022-08-26T03:13:36.287Z,8.13
2022-08-26T03:16:07.561Z,8.02
2022-08-26T03:18:37.926Z,7.90
2022-08-26T03:21:10.855Z,8.13
2022-08-26T03:23:41.783Z,6.95
2022-08-26T03:26:16.060Z,7.97
2022-08-26T03:29:00.007Z,8.90
2022-08-26T03:31:31.219Z,8.15
2022-08-26T03:34:01.651Z,7.70
2022-08-26T03:36:32.422Z,7.70
2022-08-26T03:39:05.510Z,7.65
2022-08-26T03:41:37.483Z,7.72
2022-08-26T03:44:09.152Z,7.82
2022-08-26T03:46:40.802Z,7.90
2022-08-26T03:49:10.864Z,8.75
2022-08-26T03:51:42.091Z,8.27
2022-08-26T03:54:12.299Z,7.45
2022-08-26T03:56:43.607Z,8.13
2022-08-26T03:59:16.568Z,7.68
2022-08-26T04:01:46.571Z,7.68
2022-08-26T04:04:18.283Z,7.90
2022-08-26T04:06:58.254Z,8.05
2022-08-26T04:09:28.862Z,8.45
2022-08-26T04:12:00.775Z,8.27
2022-08-26T04:14:32.291Z,7.35
2022-08-26T04:17:02.865Z,9.68
2022-08-26T04:19:33.820Z,9.48
2022-08-26T04:22:03.817Z,8.52
2022-08-26T04:24:34.762Z,8.70
2022-08-26T04:27:06.605Z,9.57
2022-08-26T04:29:39.137Z,9.73
2022-08-26T04:32:09.636Z,10.68
2022-08-26T04:34:40.185Z,9.98
2022-08-26T04:37:13.239Z,8.15
2022-08-26T04:39:44.052Z,9.85
2022-08-26T04:42:17.956Z,9.77
2022-08-26T04:44:53.268Z,9.50
2022-08-26T04:47:23.412Z,8.57
2022-08-26T04:49:56.256Z,9.98
2022-08-26T04:52:27.715Z,10.43
2022-08-26T04:54:58.156Z,9.73
2022-08-26T04:57:29.583Z,11.63
2022-08-26T05:00:00.702Z,9.85
2022-08-26T05:02:31.592Z,9.77
2022-08-26T05:05:03.015Z,10.48
2022-08-26T05:07:34.929Z,10.05
2022-08-26T05:10:08.776Z,9.02
2022-08-26T05:12:41.101Z,8.68
2022-08-26T05:15:14.734Z,7.13
2022-08-26T05:17:45.052Z,7.10
2022-08-26T05:20:15.280Z,6.93
2022-08-26T05:22:45.262Z,6.45
2022-08-26T05:25:15.583Z,7.10
2022-08-26T05:27:47.496Z,6.47
2022-08-26T05:30:17.929Z,6.10
2022-08-26T05:32:51.524Z,5.70
2022-08-26T05:35:24.052Z,6.28
2022-08-26T05:37:54.007Z,6.80
2022-08-26T05:40:24.095Z,6.25
2022-08-26T05:42:57.401Z,6.53
2022-08-26T05:45:29.192Z,6.43
2022-08-26T05:47:59.353Z,6.70
2022-08-26T05:50:29.349Z,7.20
2022-08-26T05:52:59.380Z,6.28
2022-08-26T05:55:29.991Z,7.20
2022-08-26T05:58:02.798Z,6.43
2022-08-26T06:00:33.088Z,5.95
2022-08-26T06:03:03.079Z,6.07
2022-08-26T06:05:37.838Z,5.80
2022-08-26T06:08:14.081Z,7.00
2022-08-26T06:10:48.415Z,6.90
2022-08-26T06:13:21.511Z,7.55
2022-08-26T06:15:52.725Z,10.52
2022-08-26T06:18:27.393Z,13.30
2022-08-26T06:21:00.299Z,7.30
2022-08-26T06:23:48.155Z,5.97
2022-08-26T06:26:18.472Z,7.78
2022-08-26T06:28:49.959Z,8.02
2022-08-26T06:31:20.868Z,6.97
2022-08-26T06:33:51.328Z,6.65
2022-08-26T06:36:25.413Z,7.13
2022-08-26T06:38:59.992Z,17.42
2022-08-26T06:41:31.827Z,10.15
2022-08-26T06:44:05.891Z,6.93
2022-08-26T06:46:37.544Z,8.30
2022-08-26T06:49:08.235Z,6.82
2022-08-26T06:51:40.860Z,7.03
2022-08-26T06:54:11.513Z,6.33
2022-08-26T06:56:44.118Z,7.20
2022-08-26T06:59:16.137Z,7.05
2022-08-26T07:01:46.261Z,8.02
2022-08-26T07:04:20.267Z,7.40
2022-08-26T07:06:53.933Z,8.00
2022-08-26T07:09:27.080Z,6.90
2022-08-26T07:11:58.505Z,6.93
2022-08-26T07:14:31.799Z,5.78
2022-08-26T07:17:01.958Z,5.60
2022-08-26T07:19:32.294Z,7.63
2022-08-26T07:22:06.258Z,6.32
2022-08-26T07:24:41.175Z,7.07
2022-08-26T07:27:14.520Z,7.65
2022-08-26T07:29:46.084Z,6.40
2022-08-26T07:32:17.685Z,7.10
2022-08-26T07:34:47.979Z,6.53
2022-08-26T07:37:17.973Z,6.75
2022-08-26T07:39:49.436Z,5.90
2022-08-26T07:42:20.829Z,5.70
2022-08-26T07:44:52.421Z,5.88
2022-08-26T07:47:24.735Z,5.93
2022-08-26T07:49:57.503Z,5.45
2022-08-26T07:52:31.017Z,6.40
2022-08-26T07:55:04.423Z,5.50
2022-08-26T07:57:35.216Z,6.13
2022-08-26T08:00:11.564Z,5.75
2022-08-26T08:02:41.581Z,5.53
2022-08-26T08:05:13.965Z,6.43
2022-08-26T08:07:45.647Z,6.25
2022-08-26T08:10:20.968Z,7.13
2022-08-26T08:12:52.681Z,7.72
2022-08-26T08:15:28.781Z,9.75
2022-08-26T08:18:08.136Z,8.82
2022-08-26T08:21:04.750Z,7.45
2022-08-26T08:23:36.587Z,7.90
2022-08-26T08:26:09.156Z,8.95
2022-08-26T08:28:39.823Z,8.18
2022-08-26T08:31:38.586Z,7.68
2022-08-26T08:34:10.392Z,7.97
2022-08-26T08:36:40.418Z,9.15
2022-08-26T08:39:12.290Z,9.18
2022-08-26T08:41:51.740Z,8.43
2022-08-26T08:44:30.831Z,9.85
2022-08-26T08:47:07.231Z,9.65
2022-08-26T08:49:37.326Z,8.75
2022-08-26T08:52:18.436Z,21.08
2022-08-26T08:54:49.851Z,10.25
2022-08-26T08:57:28.977Z,9.20
2022-08-26T09:00:06.008Z,9.88
2022-08-26T09:02:44.236Z,9.40
2022-08-26T09:05:20.888Z,13.23
2022-08-26T09:07:58.496Z,13.32
2022-08-26T09:10:36.545Z,13.23
2022-08-26T09:13:09.383Z,15.27
2022-08-26T09:15:59.324Z,13.25
2022-08-26T09:18:59.580Z,13.77
2022-08-26T09:21:29.928Z,13.10
2022-08-26T09:24:00.527Z,12.18
2022-08-26T09:26:43.085Z,15.35
2022-08-26T09:29:22.790Z,11.50
2022-08-26T09:31:53.618Z,14.15
2022-08-26T09:34:27.351Z,13.02
2022-08-26T09:37:00.293Z,12.20
2022-08-26T09:39:37.839Z,12.43
2022-08-26T09:42:11.129Z,15.35
2022-08-26T09:47:31.665Z,15.77
2022-08-26T09:50:12.557Z,14.45
2022-08-26T09:52:43.002Z,14.18
2022-08-26T09:55:21.330Z,14.10
2022-08-26T09:57:53.124Z,15.15
2022-08-26T10:00:30.518Z,15.68
2022-08-26T10:03:02.720Z,14.82
2022-08-26T10:05:40.456Z,14.57
2022-08-26T10:08:27.135Z,14.98
2022-08-26T10:10:59.031Z,16.80
2022-08-26T10:13:34.479Z,16.10
2022-08-26T10:16:14.640Z,14.85
2022-08-26T10:18:48.767Z,10.45
2022-08-26T10:21:26.690Z,9.65
2022-08-26T10:24:00.648Z,8.43
2022-08-26T10:26:40.413Z,8.90
2022-08-26T10:29:16.848Z,7.50
2022-08-26T10:31:52.655Z,8.02
2022-08-26T10:34:23.258Z,8.63
2022-08-26T10:37:15.041Z,6.38
2022-08-26T10:39:57.134Z,7.95
2022-08-26T10:42:35.340Z,10.40
2022-08-26T10:45:12.003Z,8.00
2022-08-26T10:47:51.360Z,7.55
2022-08-26T10:50:23.458Z,7.72
2022-08-26T10:53:03.960Z,8.60
2022-08-26T10:55:39.728Z,10.10
2022-08-26T10:58:26.428Z,8.98
2022-08-26T11:01:22.696Z,8.50
2022-08-26T11:04:00.442Z,7.93
2022-08-26T11:06:31.422Z,6.57
2022-08-26T11:09:06.004Z,7.95
2022-08-26T11:11:58.558Z,7.57
2022-08-26T11:14:44.674Z,7.28
2022-08-26T11:17:55.748Z,6.25
2022-08-26T11:20:41.826Z,9.55
2022-08-26T11:23:50.241Z,16.42
2022-08-26T11:26:55.228Z,10.95
2022-08-26T11:29:57.072Z,8.25
2022-08-26T11:32:46.727Z,9.32
2022-08-26T11:35:48.354Z,9.07
2022-08-26T11:38:28.873Z,7.85
2022-08-26T11:41:09.375Z,7.30
2022-08-26T11:43:42.651Z,11.48
2022-08-26T11:46:14.207Z,12.60
2022-08-26T11:48:45.196Z,10.80
2022-08-26T11:51:25.187Z,9.18
2022-08-26T11:54:10.866Z,8.27
2022-08-26T11:56:43.169Z,8.57
2022-08-26T11:59:19.900Z,10.25
2022-08-26T12:01:53.260Z,8.93
2022-08-26T12:04:29.957Z,8.45
2022-08-26T12:07:02.503Z,8.23
2022-08-26T12:09:36.432Z,8.77
2022-08-26T12:12:16.234Z,7.82
2022-08-26T12:14:48.189Z,7.85
2022-08-26T12:17:29.280Z,7.70
2022-08-26T12:20:00.273Z,7.47
2022-08-26T12:22:36.115Z,7.80
2022-08-26T12:25:10.064Z,7.38
2022-08-26T12:27:42.679Z,9.70
2022-08-26T12:30:19.177Z,54.33
2022-08-26T12:32:57.848Z,29.83
2022-08-26T12:35:28.969Z,61.47
2022-08-26T12:37:59.811Z,28.73
2022-08-26T12:40:35.546Z,28.33
2022-08-26T12:43:07.077Z,22.92
2022-08-26T12:45:41.601Z,53.70
2022-08-26T12:48:14.677Z,34.17
2022-08-26T12:50:48.564Z,14.60
2022-08-26T12:55:54.640Z,14.02
2022-08-26T12:58:31.793Z,38.00
2022-08-26T13:01:22.679Z,38.33
2022-08-26T13:03:53.289Z,16.75
2022-08-26T13:06:30.055Z,17.23
2022-08-26T13:09:04.427Z,11.73
2022-08-26T13:11:56.021Z,14.20
2022-08-26T13:14:26.463Z,16.15
2022-08-26T13:16:58.399Z,15.18
2022-08-26T13:19:29.571Z,11.45
2022-08-26T13:22:01.227Z,8.60
2022-08-26T13:24:35.137Z,12.82
2022-08-26T13:27:06.272Z,9.93
2022-08-26T13:29:37.183Z,7.50
2022-08-26T13:32:09.923Z,15.30
2022-08-26T13:37:10.623Z,15.10
2022-08-26T13:39:41.940Z,13.60
2022-08-26T13:42:11.864Z,10.05
2022-08-26T13:44:43.748Z,10.30
2022-08-26T13:47:15.243Z,10.32
2022-08-26T13:49:46.240Z,14.60
2022-08-26T13:52:16.775Z,14.32
2022-08-26T13:54:46.689Z,11.75
2022-08-26T13:57:17.019Z,11.68
2022-08-26T13:59:47.402Z,10.50
2022-08-26T14:02:18.852Z,8.27
2022-08-26T14:04:48.984Z,9.93
2022-08-26T14:07:19.367Z,9.27
2022-08-26T14:09:49.469Z,9.20
2022-08-26T14:12:20.383Z,8.32
2022-08-26T14:14:50.640Z,9.32
2022-08-26T14:17:24.454Z,7.97
2022-08-26T14:19:54.925Z,8.20
2022-08-26T14:22:25.054Z,7.43
2022-08-26T14:24:56.521Z,5.85
2022-08-26T14:27:27.908Z,6.72
2022-08-26T14:29:57.738Z,6.68
2022-08-26T14:32:31.234Z,6.55
2022-08-26T14:35:01.354Z,6.30
2022-08-26T14:37:31.594Z,6.63
2022-08-26T14:40:02.021Z,7.10
2022-08-26T14:42:32.452Z,7.53
2022-08-26T14:45:05.183Z,7.90
2022-08-26T14:47:37.845Z,7.63
2022-08-26T14:50:08.563Z,7.32
2022-08-26T14:52:52.531Z,7.05
2022-08-26T14:55:22.413Z,7.45
2022-08-26T14:57:52.268Z,8.15
2022-08-26T15:00:23.349Z,11.00
2022-08-26T15:02:54.726Z,8.32
2022-08-26T15:05:24.670Z,12.65
2022-08-26T15:07:54.725Z,9.05
2022-08-26T15:10:24.703Z,13.48
2022-08-26T15:12:55.350Z,8.32
2022-08-26T15:15:25.612Z,7.20
2022-08-26T15:17:57.112Z,8.50
2022-08-26T15:20:27.118Z,8.85
2022-08-26T15:22:58.223Z,18.73
2022-08-26T15:25:32.069Z,25.80
2022-08-26T15:28:02.087Z,16.25
2022-08-26T15:30:33.471Z,12.45
2022-08-26T15:33:04.780Z,14.57
2022-08-26T15:35:38.423Z,17.98
2022-08-26T15:38:10.802Z,14.93
2022-08-26T15:40:40.901Z,17.52
2022-08-26T15:43:27.682Z,9.25
2022-08-26T15:45:58.952Z,9.70
2022-08-26T15:48:30.284Z,10.20
2022-08-26T15:51:02.483Z,10.38
2022-08-26T15:53:34.236Z,8.85
2022-08-26T15:56:05.339Z,9.52
2022-08-26T15:58:35.235Z,7.88
2022-08-26T16:01:06.490Z,13.80
2022-08-26T16:03:37.914Z,9.93
2022-08-26T16:06:08.778Z,8.88
2022-08-26T16:08:39.669Z,8.30
2022-08-26T16:11:10.355Z,8.30
2022-08-26T16:13:41.023Z,8.75
2022-08-26T16:16:12.051Z,10.23
2022-08-26T16:18:44.505Z,10.30
2022-08-26T16:21:17.421Z,10.68
2022-08-26T16:23:49.084Z,9.65
2022-08-26T16:26:21.607Z,11.13
2022-08-26T16:28:52.347Z,7.97
2022-08-26T16:31:22.630Z,8.80
2022-08-26T16:33:54.104Z,8.80
2022-08-26T16:36:24.310Z,9.98
2022-08-26T16:38:56.448Z,9.30
2022-08-26T16:41:28.774Z,9.68
2022-08-26T16:43:59.490Z,8.20
2022-08-26T16:46:30.655Z,9.30
2022-08-26T16:49:04.764Z,10.02
2022-08-26T16:51:38.287Z,9.50
2022-08-26T16:54:09.448Z,8.60
2022-08-26T16:56:40.069Z,7.88
2022-08-26T16:59:11.738Z,9.30
2022-08-26T17:01:41.776Z,9.27
2022-08-26T17:04:13.180Z,10.30
2022-08-26T17:06:43.181Z,9.68
2022-08-26T17:09:13.531Z,9.50
2022-08-26T17:11:44.949Z,11.38
2022-08-26T17:14:15.384Z,10.73
2022-08-26T17:16:46.301Z,11.75
2022-08-26T17:19:19.196Z,9.93
2022-08-26T17:21:49.529Z,11.43
2022-08-26T17:24:19.428Z,9.38
2022-08-26T17:26:53.430Z,10.25
2022-08-26T17:29:23.669Z,10.02
2022-08-26T17:31:53.608Z,9.45
2022-08-26T17:34:25.775Z,10.43
2022-08-26T17:36:55.836Z,9.23
2022-08-26T17:39:25.719Z,9.82
2022-08-26T17:41:55.578Z,9.30
2022-08-26T17:44:25.480Z,10.23
2022-08-26T17:46:55.445Z,10.43
2022-08-26T17:49:27.699Z,9.93
2022-08-26T17:51:59.544Z,9.27
2022-08-26T17:54:30.494Z,10.98
2022-08-26T17:57:02.008Z,10.63
2022-08-26T17:59:32.048Z,11.57
2022-08-26T18:02:02.311Z,10.98
2022-08-26T18:04:34.072Z,13.60
2022-08-26T18:07:04.072Z,11.05
2022-08-26T18:09:35.037Z,12.48
2022-08-26T18:12:05.538Z,12.90
2022-08-26T18:14:36.767Z,11.55
2022-08-26T18:17:07.877Z,12.15
2022-08-26T18:19:39.172Z,11.55
2022-08-26T18:22:09.649Z,11.13
2022-08-26T18:24:57.369Z,8.68
2022-08-26T18:29:59.413Z,9.90
2022-08-26T18:32:29.422Z,11.63
2022-08-26T18:35:00.751Z,9.48
2022-08-26T18:37:31.631Z,11.57
2022-08-26T18:40:01.960Z,11.23
2022-08-26T18:42:31.919Z,11.57
2022-08-26T18:45:02.214Z,10.57
2022-08-26T18:47:32.481Z,11.80
2022-08-26T18:50:04.557Z,12.77
2022-08-26T18:52:34.967Z,13.15
2022-08-26T18:55:05.899Z,11.18
2022-08-26T18:57:35.814Z,9.95
2022-08-26T19:00:08.215Z,9.10
2022-08-26T19:02:38.725Z,9.30
2022-08-26T19:05:11.642Z,9.55
2022-08-26T19:07:41.697Z,9.73
2022-08-26T19:10:15.701Z,10.27
2022-08-26T19:12:46.006Z,9.82
2022-08-26T19:15:22.994Z,9.88
2022-08-26T19:17:53.113Z,12.32
2022-08-26T19:20:25.807Z,10.15
2022-08-26T19:22:59.685Z,10.65
2022-08-26T19:25:32.509Z,10.82
2022-08-26T19:28:02.629Z,10.57
2022-08-26T19:30:33.394Z,9.15
2022-08-26T19:33:05.277Z,9.02
2022-08-26T19:35:37.651Z,8.82
2022-08-26T19:38:07.532Z,9.23
2022-08-26T19:40:38.704Z,9.50
2022-08-26T19:43:09.501Z,8.32
2022-08-26T19:48:12.095Z,8.98
2022-08-26T19:50:43.681Z,8.55
2022-08-26T19:53:13.824Z,8.93
2022-08-26T19:55:43.717Z,8.32
2022-08-26T19:58:13.522Z,8.35
2022-08-26T20:00:43.568Z,7.95
2022-08-26T20:03:16.026Z,8.25
2022-08-26T20:05:47.728Z,8.70
2022-08-26T20:08:22.585Z,8.23
2022-08-26T20:10:54.062Z,9.02
2022-08-26T20:13:24.380Z,7.53
2022-08-26T20:15:54.858Z,7.47
2022-08-26T20:18:42.235Z,8.05
2022-08-26T20:21:29.451Z,8.63
2022-08-26T20:24:03.568Z,8.75
2022-08-26T20:26:36.593Z,7.63
2022-08-26T20:29:08.331Z,7.68
2022-08-26T20:31:39.065Z,8.30
2022-08-26T20:34:09.080Z,8.30
2022-08-26T20:36:41.592Z,8.40
2022-08-26T20:39:12.156Z,7.57
2022-08-26T20:41:42.474Z,8.15
2022-08-26T20:44:13.291Z,7.65
2022-08-26T20:46:44.629Z,8.18
2022-08-26T20:49:15.434Z,8.60
2022-08-26T20:51:48.336Z,10.10
2022-08-26T20:54:19.444Z,8.87
2022-08-26T20:56:50.091Z,8.18
2022-08-26T20:59:21.446Z,8.18
2022-08-26T21:01:51.521Z,7.47
2022-08-26T21:04:23.652Z,7.43
2022-08-26T21:06:55.496Z,7.65
2022-08-26T21:09:27.337Z,8.48
2022-08-26T21:11:59.189Z,7.82
2022-08-26T21:14:29.377Z,7.13
2022-08-26T21:17:00.172Z,7.40
2022-08-26T21:19:30.800Z,7.20
2022-08-26T21:22:03.483Z,6.78
2022-08-26T21:24:33.842Z,7.00
2022-08-26T21:27:03.673Z,7.45
2022-08-26T21:29:34.540Z,7.28
2022-08-26T21:32:05.208Z,6.75
2022-08-26T21:34:35.387Z,7.70
2022-08-26T21:37:15.161Z,7.57
2022-08-26T21:39:46.713Z,8.13
2022-08-26T21:42:16.607Z,7.88
2022-08-26T21:44:50.819Z,7.95
2022-08-26T21:47:23.159Z,6.90
2022-08-26T21:49:53.572Z,7.82
2022-08-26T21:52:24.797Z,7.10
2022-08-26T21:54:58.129Z,7.38
2022-08-26T21:59:59.731Z,6.80
2022-08-26T22:02:29.661Z,7.55
2022-08-26T22:04:59.501Z,7.47
2022-08-26T22:07:30.853Z,6.57
2022-08-26T22:10:02.227Z,7.32
2022-08-26T22:12:32.948Z,8.00
2022-08-26T22:15:03.764Z,7.63
2022-08-26T22:17:33.763Z,7.60
2022-08-26T22:20:03.948Z,6.72
2022-08-26T22:22:35.258Z,6.28
2022-08-26T22:25:05.600Z,7.28
2022-08-26T22:27:35.516Z,7.30
2022-08-26T22:30:11.733Z,7.45
2022-08-26T22:32:42.189Z,6.90
2022-08-26T22:35:28.439Z,7.07
2022-08-26T22:38:00.968Z,7.05
2022-08-26T22:40:30.853Z,6.93
2022-08-26T22:43:00.763Z,7.00
2022-08-26T22:45:32.310Z,7.68
2022-08-26T22:48:05.030Z,7.13
2022-08-26T22:50:35.423Z,6.90
2022-08-26T22:53:06.590Z,7.20
2022-08-26T22:55:37.275Z,6.97
2022-08-26T22:58:08.004Z,7.57
2022-08-26T23:00:38.510Z,7.40
2022-08-26T23:03:09.056Z,6.38
2022-08-26T23:05:40.080Z,6.88
2022-08-26T23:08:12.486Z,7.68
2022-08-26T23:10:44.352Z,7.15
2022-08-26T23:13:17.347Z,6.80
2022-08-26T23:15:47.747Z,6.90
2022-08-26T23:18:17.699Z,6.78
2022-08-26T23:20:47.745Z,7.22
2022-08-26T23:23:18.956Z,6.40
2022-08-26T23:25:48.850Z,7.13
2022-08-26T23:28:20.627Z,6.55
2022-08-26T23:30:50.668Z,7.38
2022-08-26T23:33:21.074Z,7.32
2022-08-26T23:35:50.839Z,6.82
2022-08-26T23:38:22.010Z,6.22
2022-08-26T23:40:51.869Z,6.43
2022-08-26T23:43:21.924Z,7.07
2022-08-26T23:45:51.772Z,5.93
2022-08-26T23:48:21.904Z,6.65
2022-08-26T23:51:09.247Z,6.97
2022-08-26T23:53:40.429Z,6.10
2022-08-26T23:56:15.820Z,6.80
2022-08-26T23:58:47.086Z,6.32
